Time;durP1;ratioP1;P1;durP2;ratioP2;P2;SDS_P1;SDS_P2;PMS_P1;PMS_P2;Temp;Humidity;BMP_temperature;BMP_pressure;BME280_temperature;BME280_humidity;BME280_pressure;Samples;Min_cycle;Max_cycle;Signal;HPM_P1;HPM_P2
2023/09/15 00:00:33;;;;;;;7.60;3.30;;;13.00;99.90;;;;;;5015235;28;20436;-74
2023/09/15 00:02:58;;;;;;;9.43;3.55;;;13.20;99.90;;;;;;5051194;28;20444;-74
2023/09/15 00:05:26;;;;;;;9.32;3.53;;;13.10;99.90;;;;;;5017792;28;20436;-75
2023/09/15 00:07:52;;;;;;;10.52;3.90;;;13.10;99.90;;;;;;5049846;28;20447;-75
2023/09/15 00:10:21;;;;;;;11.13;3.83;;;12.90;99.90;;;;;;5049967;28;20447;-75
2023/09/15 00:12:47;;;;;;;8.65;3.53;;;;;;;;;;5018181;28;20914;-74
2023/09/15 00:15:15;;;;;;;10.95;3.80;;;13.00;99.90;;;;;;5031120;28;20425;-74
2023/09/15 00:17:42;;;;;;;9.40;3.63;;;;;;;;;;5022112;28;20456;-74
2023/09/15 00:20:16;;;;;;;8.90;4.38;;;13.10;99.90;;;;;;5051184;28;20418;-74
2023/09/15 00:22:49;;;;;;;11.55;4.15;;;13.00;99.90;;;;;;5051396;28;20398;-74
2023/09/15 00:25:33;;;;;;;9.48;4.13;;;13.00;99.90;;;;;;5067072;28;20504;-74
2023/09/15 00:28:00;;;;;;;10.43;4.40;;;12.90;99.90;;;;;;5049101;28;20409;-74
2023/09/15 00:30:27;;;;;;;11.48;4.75;;;12.60;99.90;;;;;;5051410;28;20419;-74
2023/09/15 00:32:54;;;;;;;10.85;5.20;;;12.70;99.90;;;;;;5033054;28;20464;-75
2023/09/15 00:35:22;;;;;;;9.68;5.20;;;12.80;99.90;;;;;;5050958;28;20484;-75
2023/09/15 00:37:49;;;;;;;11.25;5.40;;;12.80;99.90;;;;;;5067307;28;20435;-74
2023/09/15 00:40:17;;;;;;;11.23;5.40;;;12.50;99.90;;;;;;5015910;28;20433;-74
2023/09/15 00:42:44;;;;;;;13.60;5.45;;;12.50;99.90;;;;;;5018226;28;20804;-74
2023/09/15 00:45:14;;;;;;;14.32;5.63;;;12.60;99.90;;;;;;5019220;28;20417;-74
2023/09/15 00:47:43;;;;;;;11.00;5.32;;;12.50;99.90;;;;;;5017130;28;20769;-75
2023/09/15 00:50:10;;;;;;;11.07;5.53;;;12.40;99.90;;;;;;5016182;28;20951;-74
2023/09/15 00:52:36;;;;;;;11.23;5.67;;;12.60;99.90;;;;;;5051931;28;20483;-74
2023/09/15 00:55:04;;;;;;;10.45;5.43;;;;;;;;;;5032368;28;20413;-74
2023/09/15 00:57:30;;;;;;;12.52;5.57;;;12.40;99.90;;;;;;5020845;28;20421;-74
2023/09/15 00:59:56;;;;;;;13.33;5.40;;;12.20;99.90;;;;;;5042410;28;20525;-75
2023/09/15 01:02:23;;;;;;;11.50;5.63;;;12.20;99.90;;;;;;5037641;28;20479;-74
2023/09/15 01:04:50;;;;;;;12.07;5.75;;;12.30;99.90;;;;;;5031415;28;20425;-74
2023/09/15 01:07:15;;;;;;;11.88;5.30;;;12.20;99.90;;;;;;5047936;28;20417;-75
2023/09/15 01:09:41;;;;;;;11.93;5.77;;;12.00;99.90;;;;;;5039354;28;20982;-75
2023/09/15 01:12:08;;;;;;;11.35;5.50;;;12.10;99.90;;;;;;5028041;28;20930;-75
2023/09/15 01:14:35;;;;;;;10.68;5.07;;;;;;;;;;5051899;28;20503;-75
2023/09/15 01:17:15;;;;;;;9.03;4.97;;;12.40;99.90;;;;;;5026066;28;20604;-75
2023/09/15 01:19:56;;;;;;;10.82;4.70;;;12.10;99.90;;;;;;5036869;28;20424;-75
2023/09/15 01:22:53;;;;;;;10.73;5.13;;;12.00;99.90;;;;;;5039236;28;20430;-75
2023/09/15 01:25:39;;;;;;;11.57;5.32;;;12.20;99.90;;;;;;5066994;28;20429;-75
2023/09/15 01:28:23;;;;;;;10.30;5.20;;;;;;;;;;5066154;28;20420;-75
2023/09/15 01:30:50;;;;;;;9.40;5.10;;;12.20;99.90;;;;;;5068668;28;20461;-75
2023/09/15 01:33:21;;;;;;;12.13;5.22;;;11.90;99.90;;;;;;5065370;28;20987;-75
2023/09/15 01:35:47;;;;;;;8.30;4.70;;;;;;;;;;5032900;28;20464;-75
2023/09/15 01:38:13;;;;;;;9.30;4.90;;;;;;;;;;5038803;28;20502;-74
2023/09/15 01:40:39;;;;;;;9.15;5.00;;;12.00;99.90;;;;;;5029273;28;20419;-75
2023/09/15 01:43:04;;;;;;;10.50;5.03;;;12.10;99.90;;;;;;5025961;28;20424;-75
2023/09/15 01:45:30;;;;;;;9.73;4.90;;;11.90;99.90;;;;;;5032601;28;20527;-75
2023/09/15 01:47:57;;;;;;;10.33;5.10;;;11.80;99.90;;;;;;5034558;28;20516;-75
2023/09/15 01:50:24;;;;;;;9.30;4.93;;;11.80;99.90;;;;;;5017301;28;20429;-75
2023/09/15 01:52:50;;;;;;;11.05;4.90;;;11.80;99.90;;;;;;5032776;28;20417;-74
2023/09/15 01:55:16;;;;;;;10.93;5.15;;;11.80;99.90;;;;;;5017800;28;20425;-75
2023/09/15 01:57:42;;;;;;;9.15;4.60;;;11.80;99.90;;;;;;5048376;28;20432;-74
2023/09/15 02:00:08;;;;;;;9.60;5.30;;;11.70;99.90;;;;;;5044218;28;20416;-74
2023/09/15 02:02:34;;;;;;;11.57;4.82;;;11.70;99.90;;;;;;5046044;28;20935;-75
2023/09/15 02:05:00;;;;;;;10.37;4.97;;;11.80;99.90;;;;;;5030020;28;20503;-74
2023/09/15 02:07:25;;;;;;;9.88;4.78;;;11.70;99.90;;;;;;5029956;28;20894;-75
2023/09/15 02:09:51;;;;;;;10.88;5.10;;;11.60;99.90;;;;;;5030326;28;20421;-75
2023/09/15 02:12:17;;;;;;;9.20;4.93;;;11.60;99.90;;;;;;5033312;28;20892;-75
2023/09/15 02:14:44;;;;;;;9.60;5.10;;;11.50;99.90;;;;;;5016902;28;20410;-75
2023/09/15 02:17:14;;;;;;;7.73;4.70;;;11.50;99.90;;;;;;5032603;28;21088;-75
2023/09/15 02:19:41;;;;;;;8.75;4.40;;;11.60;99.90;;;;;;5035454;28;20429;-75
2023/09/15 02:22:08;;;;;;;12.23;5.40;;;;;;;;;;5037260;28;20423;-75
2023/09/15 02:24:34;;;;;;;10.23;4.97;;;;;;;;;;5038171;28;20419;-74
2023/09/15 02:27:00;;;;;;;9.63;4.85;;;;;;;;;;5044322;28;20924;-74
2023/09/15 02:29:26;;;;;;;14.17;5.37;;;11.30;99.90;;;;;;5035034;28;20944;-74
2023/09/15 02:31:52;;;;;;;10.33;5.10;;;11.50;99.90;;;;;;5049812;28;20453;-75
2023/09/15 02:34:17;;;;;;;12.03;5.50;;;11.40;99.90;;;;;;5035653;28;20478;-74
2023/09/15 02:36:44;;;;;;;9.70;5.23;;;;;;;;;;5019551;28;20498;-74
2023/09/15 02:39:09;;;;;;;11.77;5.57;;;11.30;99.90;;;;;;5035990;28;20425;-74
2023/09/15 02:41:35;;;;;;;8.87;4.97;;;11.30;99.90;;;;;;5022227;28;20500;-74
2023/09/15 02:44:02;;;;;;;10.80;5.45;;;;;;;;;;5034110;28;20913;-74
2023/09/15 02:46:28;;;;;;;9.63;5.22;;;11.30;99.90;;;;;;5034555;28;20413;-75
2023/09/15 02:48:54;;;;;;;10.05;5.10;;;11.20;99.90;;;;;;5019828;28;20478;-74
2023/09/15 02:51:20;;;;;;;10.07;5.00;;;;;;;;;;5019524;28;20425;-74
2023/09/15 02:53:45;;;;;;;8.15;4.70;;;11.30;99.90;;;;;;5031474;28;20422;-74
2023/09/15 02:56:11;;;;;;;11.37;4.90;;;;;;;;;;5033737;28;20425;-74
2023/09/15 02:58:37;;;;;;;11.00;5.25;;;11.10;99.90;;;;;;5052114;28;20745;-75
2023/09/15 03:01:16;;;;;;;12.17;5.37;;;11.10;99.90;;;;;;5067731;28;20437;-76
2023/09/15 03:03:42;;;;;;;9.07;4.70;;;11.20;99.90;;;;;;5018810;28;20428;-76
2023/09/15 03:06:08;;;;;;;10.02;4.78;;;11.20;99.90;;;;;;5035002;28;20421;-76
2023/09/15 03:08:35;;;;;;;8.88;4.57;;;;;;;;;;5058402;28;20416;-76
2023/09/15 03:11:01;;;;;;;9.70;4.63;;;11.00;99.90;;;;;;5068352;28;20453;-76
2023/09/15 03:13:27;;;;;;;10.55;4.75;;;;;;;;;;5068652;28;20424;-76
2023/09/15 03:15:53;;;;;;;9.82;4.63;;;;;;;;;;5069338;28;20401;-75
2023/09/15 03:18:19;;;;;;;12.63;4.97;;;;;;;;;;5066347;28;20433;-75
2023/09/15 03:20:46;;;;;;;8.50;4.30;;;11.00;99.90;;;;;;5068751;28;20436;-75
2023/09/15 03:23:11;;;;;;;9.10;4.57;;;11.00;99.90;;;;;;5060342;28;20413;-76
2023/09/15 03:25:38;;;;;;;12.00;4.50;;;;;;;;;;5045346;28;20911;-75
2023/09/15 03:28:04;;;;;;;10.35;4.35;;;11.10;99.90;;;;;;5053298;28;20419;-76
2023/09/15 03:30:29;;;;;;;10.38;4.90;;;11.10;99.90;;;;;;5039595;28;20423;-74
2023/09/15 03:32:55;;;;;;;9.50;4.73;;;11.20;99.90;;;;;;5049818;28;20436;-75
2023/09/15 03:35:21;;;;;;;7.67;4.70;;;11.20;99.90;;;;;;5038598;28;20431;-74
2023/09/15 03:37:46;;;;;;;12.20;4.80;;;10.90;99.90;;;;;;5034445;28;21011;-74
2023/09/15 03:40:13;;;;;;;8.40;4.28;;;;;;;;;;5068780;28;20402;-74
2023/09/15 03:42:39;;;;;;;11.00;5.20;;;11.00;99.90;;;;;;5068159;28;20500;-74
2023/09/15 03:45:08;;;;;;;8.43;4.60;;;11.10;99.90;;;;;;5035132;28;20498;-74
2023/09/15 03:47:34;;;;;;;8.90;4.53;;;11.10;99.90;;;;;;5018383;28;20421;-74
2023/09/15 03:50:01;;;;;;;8.35;4.60;;;11.00;99.90;;;;;;5031537;28;20423;-74
2023/09/15 03:52:27;;;;;;;8.98;4.55;;;;;;;;;;5019042;28;20827;-74
2023/09/15 03:55:00;;;;;;;10.35;4.75;;;;;;;;;;5006127;28;20462;-74
2023/09/15 03:57:27;;;;;;;10.50;4.50;;;10.60;99.90;;;;;;5033723;28;20937;-75
2023/09/15 03:59:53;;;;;;;9.35;4.93;;;11.00;99.90;;;;;;5038984;28;20420;-75
2023/09/15 04:02:19;;;;;;;11.87;5.27;;;;;;;;;;5024806;28;20426;-75
2023/09/15 04:04:45;;;;;;;10.13;4.93;;;11.00;99.90;;;;;;5056690;28;20510;-75
2023/09/15 04:07:12;;;;;;;8.77;4.72;;;;;;;;;;5014214;28;20496;-75
2023/09/15 04:09:38;;;;;;;10.27;4.95;;;10.80;99.90;;;;;;5049979;28;20421;-75
2023/09/15 04:12:04;;;;;;;9.70;4.80;;;10.90;99.90;;;;;;5068237;28;20411;-76
2023/09/15 04:14:34;;;;;;;12.05;5.13;;;10.90;99.90;;;;;;5049884;28;20425;-76
2023/09/15 04:17:00;;;;;;;13.85;5.80;;;10.50;99.90;;;;;;5065116;28;20427;-75
2023/09/15 04:19:26;;;;;;;10.00;5.40;;;10.50;99.90;;;;;;5023885;28;20417;-75
2023/09/15 04:21:52;;;;;;;9.70;5.77;;;10.40;99.90;;;;;;5047189;28;20600;-76
2023/09/15 04:24:17;;;;;;;11.02;5.30;;;10.30;99.90;;;;;;5035965;28;20417;-76
2023/09/15 04:26:43;;;;;;;10.73;5.50;;;10.30;99.90;;;;;;5048745;28;20934;-76
2023/09/15 04:29:09;;;;;;;11.27;5.70;;;10.70;99.90;;;;;;5018478;28;20765;-75
2023/09/15 04:31:37;;;;;;;10.48;5.32;;;10.60;99.90;;;;;;5018757;28;20421;-75
2023/09/15 04:34:03;;;;;;;11.93;5.65;;;;;;;;;;5000743;28;20425;-76
2023/09/15 04:36:30;;;;;;;9.55;5.50;;;10.60;99.90;;;;;;5072357;28;20438;-77
2023/09/15 04:38:56;;;;;;;9.57;5.40;;;10.80;99.90;;;;;;5049865;28;20436;-77
2023/09/15 04:41:22;;;;;;;8.63;5.55;;;10.50;99.90;;;;;;5048445;28;20429;-76
2023/09/15 04:43:47;;;;;;;9.63;5.63;;;10.70;99.90;;;;;;5033786;28;20436;-77
2023/09/15 04:46:13;;;;;;;9.07;5.80;;;10.20;99.90;;;;;;5020164;28;20506;-77
2023/09/15 04:48:39;;;;;;;10.93;5.93;;;10.10;99.90;;;;;;5033336;28;20481;-77
2023/09/15 04:51:06;;;;;;;10.70;6.23;;;;;;;;;;5070306;28;20433;-76
2023/09/15 04:53:32;;;;;;;11.40;5.40;;;10.20;99.90;;;;;;5040018;28;20481;-76
2023/09/15 04:55:58;;;;;;;10.30;5.80;;;10.40;99.90;;;;;;5017736;28;20427;-76
2023/09/15 04:58:24;;;;;;;11.93;6.30;;;;;;;;;;5035053;28;20458;-76
2023/09/15 05:00:49;;;;;;;9.60;5.50;;;10.30;99.90;;;;;;5017604;28;20562;-76
2023/09/15 05:03:15;;;;;;;10.93;6.30;;;;;;;;;;5018622;28;20513;-76
2023/09/15 05:05:43;;;;;;;10.93;6.05;;;;;;;;;;5037137;28;20459;-76
2023/09/15 05:08:09;;;;;;;11.07;5.72;;;10.20;99.90;;;;;;5036596;28;20427;-77
2023/09/15 05:10:35;;;;;;;11.05;6.05;;;;;;;;;;5040996;28;20421;-77
2023/09/15 05:13:05;;;;;;;14.63;5.70;;;;;;;;;;5067281;28;20408;-77
2023/09/15 05:15:31;;;;;;;11.65;5.85;;;;;;;;;;5050524;28;20438;-77
2023/09/15 05:17:57;;;;;;;11.27;5.90;;;;;;;;;;5033735;28;20410;-76
2023/09/15 05:20:23;;;;;;;10.63;5.97;;;;;;;;;;5017192;28;20532;-76
2023/09/15 05:22:49;;;;;;;10.07;5.75;;;;;;;;;;5033527;28;20406;-76
2023/09/15 05:25:15;;;;;;;10.05;5.63;;;;;;;;;;5015236;28;20421;-76
2023/09/15 05:27:42;;;;;;;11.05;5.60;;;;;;;;;;5016808;28;20421;-76
2023/09/15 05:30:08;;;;;;;11.32;5.50;;;10.10;99.90;;;;;;5033752;28;20431;-77
2023/09/15 05:32:34;;;;;;;10.27;5.65;;;10.20;99.90;;;;;;5049358;28;20425;-77
2023/09/15 05:34:59;;;;;;;11.90;5.50;;;10.10;99.90;;;;;;5059674;28;20435;-76
2023/09/15 05:37:25;;;;;;;12.97;5.77;;;10.20;99.90;;;;;;5003340;28;20454;-77
2023/09/15 05:39:51;;;;;;;9.77;5.87;;;10.20;99.90;;;;;;5019721;28;20925;-76
2023/09/15 05:42:17;;;;;;;10.30;6.10;;;10.10;99.90;;;;;;5003470;28;20425;-77
2023/09/15 05:44:43;;;;;;;10.95;5.72;;;;;;;;;;5032349;28;20405;-77
2023/09/15 05:47:09;;;;;;;10.15;5.70;;;;;;;;;;5029507;28;20413;-77
2023/09/15 05:49:35;;;;;;;9.70;5.82;;;;;;;;;;5026154;28;20419;-76
2023/09/15 05:52:01;;;;;;;10.60;5.55;;;10.50;99.90;;;;;;5039481;28;20941;-77
2023/09/15 05:54:26;;;;;;;10.50;5.32;;;10.20;99.90;;;;;;5040315;28;20454;-76
2023/09/15 05:56:53;;;;;;;10.20;5.60;;;;;;;;;;5019927;28;20500;-76
2023/09/15 05:59:18;;;;;;;9.40;5.70;;;10.70;99.90;;;;;;5019829;28;20531;-76
2023/09/15 06:01:47;;;;;;;8.77;5.10;;;;;;;;;;5004308;28;20459;-76
2023/09/15 06:04:16;;;;;;;9.35;5.07;;;10.70;99.90;;;;;;5035191;28;20421;-76
2023/09/15 06:06:42;;;;;;;9.43;5.07;;;10.70;99.90;;;;;;5030156;28;20413;-75
2023/09/15 06:09:07;;;;;;;10.02;5.10;;;10.80;99.90;;;;;;5014976;28;20429;-75
2023/09/15 06:11:33;;;;;;;8.57;4.63;;;;;;;;;;5035531;28;20769;-75
2023/09/15 06:14:00;;;;;;;9.60;5.00;;;;;;;;;;5007747;28;20483;-76
2023/09/15 06:16:25;;;;;;;9.52;4.78;;;11.20;99.90;;;;;;5056068;28;20423;-76
2023/09/15 06:18:51;;;;;;;9.00;4.80;;;;;;;;;;5005989;28;20437;-76
2023/09/15 06:21:17;;;;;;;7.57;4.95;;;11.30;99.90;;;;;;5046420;28;20429;-76
2023/09/15 06:23:43;;;;;;;9.70;5.03;;;11.40;99.90;;;;;;5018531;28;20490;-75
2023/09/15 06:26:09;;;;;;;9.80;4.70;;;11.50;99.90;;;;;;5020374;28;20881;-75
2023/09/15 06:28:34;;;;;;;9.68;4.68;;;11.50;99.90;;;;;;5016937;28;20431;-75
2023/09/15 06:31:00;;;;;;;10.40;4.90;;;;;;;;;;5069182;28;20405;-75
2023/09/15 06:33:26;;;;;;;10.15;4.47;;;11.40;99.90;;;;;;5053226;28;20405;-75
2023/09/15 06:35:52;;;;;;;10.80;4.70;;;;;;;;;;5036573;28;20772;-75
2023/09/15 06:38:18;;;;;;;8.23;4.93;;;12.00;99.90;;;;;;5036536;28;20872;-75
2023/09/15 06:40:44;;;;;;;9.15;4.45;;;12.20;99.90;;;;;;5032273;28;20512;-76
2023/09/15 06:43:10;;;;;;;8.85;4.85;;;12.10;99.90;;;;;;5033493;28;20426;-76
2023/09/15 06:45:36;;;;;;;9.55;4.32;;;12.30;99.90;;;;;;5016324;28;20425;-76
2023/09/15 06:48:02;;;;;;;9.30;4.43;;;;;;;;;;5018089;28;20424;-76
2023/09/15 06:50:28;;;;;;;9.95;4.35;;;12.60;99.90;;;;;;5031526;28;20431;-76
2023/09/15 06:52:54;;;;;;;9.75;4.47;;;12.50;99.90;;;;;;5016507;28;20423;-76
2023/09/15 06:55:20;;;;;;;7.63;4.25;;;12.60;99.90;;;;;;5025399;28;20423;-76
2023/09/15 06:57:46;;;;;;;9.98;4.15;;;;;;;;;;5042582;28;20491;-75
2023/09/15 07:00:12;;;;;;;8.68;4.10;;;13.00;99.90;;;;;;5035698;28;20482;-75
2023/09/15 07:02:38;;;;;;;7.93;4.40;;;;;;;;;;5017688;28;20425;-76
2023/09/15 07:05:04;;;;;;;10.10;4.13;;;13.20;99.90;;;;;;5014985;28;20486;-76
2023/09/15 07:07:30;;;;;;;7.97;4.15;;;13.50;99.90;;;;;;5050767;28;20445;-77
2023/09/15 07:09:56;;;;;;;8.88;4.07;;;14.00;99.90;;;;;;5030702;28;20460;-78
2023/09/15 07:12:22;;;;;;;9.15;3.92;;;13.80;99.90;;;;;;5018536;28;20773;-79
2023/09/15 07:14:49;;;;;;;9.18;4.18;;;13.90;99.90;;;;;;5050541;28;20433;-78
2023/09/15 07:17:16;;;;;;;9.35;4.40;;;14.00;99.90;;;;;;5067048;28;20459;-76
2023/09/15 07:19:44;;;;;;;10.07;3.95;;;14.10;99.90;;;;;;5014477;28;20462;-77
2023/09/15 07:22:10;;;;;;;8.85;3.50;;;14.30;99.90;;;;;;5017887;28;20504;-77
2023/09/15 07:24:36;;;;;;;8.13;3.40;;;14.80;99.90;;;;;;5051448;28;20413;-77
2023/09/15 07:27:03;;;;;;;8.93;3.90;;;14.80;99.90;;;;;;5068295;28;20404;-77
2023/09/15 07:29:28;;;;;;;7.32;3.70;;;14.80;99.90;;;;;;5049749;28;21085;-77
2023/09/15 07:31:57;;;;;;;8.38;3.90;;;14.70;99.90;;;;;;5032190;28;20413;-77
2023/09/15 07:34:23;;;;;;;8.43;3.90;;;14.50;99.90;;;;;;5064773;28;20923;-76
2023/09/15 07:36:50;;;;;;;9.02;4.28;;;14.60;99.90;;;;;;5034593;28;20429;-77
2023/09/15 07:39:17;;;;;;;9.87;3.70;;;14.60;99.90;;;;;;5015011;28;20544;-76
2023/09/15 07:41:43;;;;;;;7.15;3.78;;;14.70;99.90;;;;;;5031653;28;20429;-77
2023/09/15 07:44:09;;;;;;;8.17;3.37;;;15.20;99.90;;;;;;5051073;28;20566;-77
2023/09/15 07:46:36;;;;;;;7.63;4.07;;;15.00;99.90;;;;;;5034696;28;20496;-77
2023/09/15 07:49:02;;;;;;;6.72;3.45;;;15.30;99.90;;;;;;5018476;28;20502;-78
2023/09/15 07:51:28;;;;;;;9.85;3.90;;;15.30;99.90;;;;;;5036402;28;20506;-78
2023/09/15 07:53:54;;;;;;;8.90;3.80;;;15.30;99.90;;;;;;5035041;28;20460;-77
2023/09/15 07:56:23;;;;;;;8.00;3.83;;;15.90;99.90;;;;;;5043929;28;20981;-78
2023/09/15 07:58:49;;;;;;;6.70;3.30;;;15.90;99.90;;;;;;5043065;28;20536;-78
2023/09/15 08:01:15;;;;;;;6.13;3.37;;;15.90;99.90;;;;;;5035438;28;20950;-78
2023/09/15 08:03:40;;;;;;;7.73;3.50;;;16.20;99.90;;;;;;5018115;28;20500;-79
2023/09/15 08:06:08;;;;;;;6.55;3.00;;;16.40;99.90;;;;;;5015922;28;20424;-78
2023/09/15 08:08:34;;;;;;;6.55;3.17;;;16.70;99.90;;;;;;5019738;28;21150;-76
2023/09/15 08:11:00;;;;;;;6.10;3.42;;;16.80;99.90;;;;;;4999979;28;20909;-76
2023/09/15 08:13:25;;;;;;;6.77;3.20;;;16.90;99.90;;;;;;5066679;28;20429;-77
2023/09/15 08:15:52;;;;;;;6.87;3.20;;;16.40;99.90;;;;;;5015845;28;20594;-76
2023/09/15 08:18:23;;;;;;;10.40;3.60;;;16.60;99.90;;;;;;5023346;28;20526;-76
2023/09/15 08:20:49;;;;;;;7.35;3.17;;;17.00;99.90;;;;;;5027383;28;20420;-78
2023/09/15 08:23:15;;;;;;;7.18;3.13;;;16.90;99.90;;;;;;5050766;28;20412;-81
2023/09/15 08:25:42;;;;;;;8.85;3.30;;;17.20;99.90;;;;;;5052191;28;20512;-78
2023/09/15 08:28:08;;;;;;;7.45;3.13;;;17.00;99.90;;;;;;5015981;28;20413;-76
2023/09/15 08:30:35;;;;;;;6.50;2.87;;;17.20;99.90;;;;;;5032444;28;20524;-77
2023/09/15 08:33:02;;;;;;;6.63;3.10;;;17.60;99.90;;;;;;5036838;28;20421;-76
2023/09/15 08:35:29;;;;;;;9.55;3.40;;;17.10;99.90;;;;;;5030195;28;20425;-76
2023/09/15 08:37:54;;;;;;;7.00;2.85;;;17.20;99.90;;;;;;5027987;28;20434;-76
2023/09/15 08:40:20;;;;;;;7.18;3.35;;;17.20;99.90;;;;;;5045399;28;20774;-77
2023/09/15 08:42:46;;;;;;;8.18;2.90;;;17.20;99.90;;;;;;5011304;28;20536;-76
2023/09/15 08:45:14;;;;;;;7.57;3.13;;;17.30;99.90;;;;;;5033922;28;20416;-77
2023/09/15 08:47:43;;;;;;;10.10;3.17;;;17.30;99.90;;;;;;5065719;28;20922;-77
2023/09/15 08:50:10;;;;;;;7.40;3.20;;;17.30;99.90;;;;;;5029066;28;20429;-77
2023/09/15 08:52:37;;;;;;;7.35;2.78;;;17.20;99.90;;;;;;5029942;28;20460;-77
2023/09/15 08:55:03;;;;;;;6.93;2.80;;;17.90;99.90;;;;;;5063043;28;20453;-77
2023/09/15 08:57:30;;;;;;;6.50;2.63;;;18.00;99.90;;;;;;5011760;28;21013;-77
2023/09/15 08:59:59;;;;;;;7.88;3.20;;;18.00;99.90;;;;;;5060327;28;20499;-77
2023/09/15 09:02:26;;;;;;;9.93;3.30;;;18.00;99.90;;;;;;5028512;28;20928;-80
2023/09/15 09:04:51;;;;;;;7.70;2.70;;;18.00;99.90;;;;;;5045878;28;20458;-76
2023/09/15 09:07:24;;;;;;;6.65;3.10;;;18.00;99.90;;;;;;5030999;28;20453;-77
2023/09/15 09:09:51;;;;;;;8.32;3.03;;;18.40;99.90;;;;;;5044950;28;20488;-78
2023/09/15 09:12:17;;;;;;;6.30;2.75;;;19.00;99.90;;;;;;5049783;28;20883;-79
2023/09/15 09:14:42;;;;;;;7.47;2.90;;;18.60;99.90;;;;;;5046872;28;20547;-78
2023/09/15 09:17:08;;;;;;;8.50;3.25;;;19.00;99.90;;;;;;5010520;28;20925;-79
2023/09/15 09:19:36;;;;;;;6.68;2.92;;;18.90;99.90;;;;;;5032800;28;20447;-79
2023/09/15 09:22:02;;;;;;;7.10;3.10;;;19.10;99.90;;;;;;5050185;28;20592;-78
2023/09/15 09:24:27;;;;;;;6.80;3.50;;;19.40;99.90;;;;;;5030554;28;20646;-79
2023/09/15 09:26:54;;;;;;;8.82;3.60;;;19.30;99.90;;;;;;5034651;28;20425;-80
2023/09/15 09:29:30;;;;;;;7.47;3.50;;;19.10;99.90;;;;;;5030948;28;20456;-80
2023/09/15 09:31:56;;;;;;;7.13;3.30;;;19.50;99.90;;;;;;5035293;28;20804;-77
2023/09/15 09:34:21;;;;;;;9.80;3.40;;;19.70;99.90;;;;;;5041911;28;20484;-77
2023/09/15 09:36:51;;;;;;;7.47;3.10;;;19.50;99.90;;;;;;5042818;28;20427;-77
2023/09/15 09:39:17;;;;;;;7.85;3.65;;;19.90;99.90;;;;;;5043113;28;20437;-77
2023/09/15 09:41:46;;;;;;;8.68;3.60;;;20.00;99.90;;;;;;5045402;28;20416;-77
2023/09/15 09:44:12;;;;;;;7.80;3.55;;;19.70;99.90;;;;;;5014766;28;21266;-75
2023/09/15 09:46:42;;;;;;;7.82;3.20;;;20.10;99.90;;;;;;5013762;28;20413;-77
2023/09/15 09:49:08;;;;;;;7.90;3.13;;;19.70;99.90;;;;;;5035062;28;20417;-79
2023/09/15 09:51:35;;;;;;;8.45;3.90;;;19.80;99.90;;;;;;5035008;28;20423;-79
2023/09/15 09:54:02;;;;;;;9.05;3.47;;;20.00;99.90;;;;;;5027367;28;20427;-79
2023/09/15 09:56:32;;;;;;;6.53;4.03;;;20.40;99.90;;;;;;5021953;28;20486;-79
2023/09/15 09:59:10;;;;;;;7.88;3.40;;;20.30;99.90;;;;;;5016152;28;20428;-77
2023/09/15 10:01:36;;;;;;;7.72;3.17;;;20.50;99.90;;;;;;5000329;28;20421;-78
2023/09/15 10:04:06;;;;;;;8.63;3.22;;;20.80;99.90;;;;;;5025961;28;20429;-79
2023/09/15 10:06:36;;;;;;;11.35;3.90;;;20.60;99.90;;;;;;5030894;28;20425;-79
2023/09/15 10:09:05;;;;;;;7.80;3.17;;;20.40;99.90;;;;;;5003300;28;20440;-79
2023/09/15 10:11:33;;;;;;;5.93;2.80;;;20.50;99.90;;;;;;5047670;28;20417;-79
2023/09/15 10:14:01;;;;;;;6.60;2.53;;;20.60;99.90;;;;;;5027228;28;21817;-80
2023/09/15 10:16:27;;;;;;;5.70;2.50;;;20.60;99.90;;;;;;5038599;28;20425;-80
2023/09/15 10:18:53;;;;;;;5.70;2.72;;;20.30;99.90;;;;;;5066628;28;20888;-80
2023/09/15 10:21:19;;;;;;;6.55;2.67;;;20.70;99.90;;;;;;5066784;28;20494;-81
2023/09/15 10:23:45;;;;;;;7.38;2.70;;;21.00;99.90;;;;;;5016310;28;20457;-84
2023/09/15 10:26:12;;;;;;;5.70;2.60;;;20.70;99.90;;;;;;5031687;28;20456;-79
2023/09/15 10:28:38;;;;;;;7.45;2.60;;;20.50;99.90;;;;;;5068134;28;20475;-81
2023/09/15 10:31:04;;;;;;;4.85;2.50;;;20.90;99.90;;;;;;5014877;28;20438;-81
2023/09/15 10:33:30;;;;;;;5.35;2.45;;;21.20;99.90;;;;;;5016587;28;20773;-82
2023/09/15 10:36:06;;;;;;;5.67;2.40;;;21.40;99.90;;;;;;5017367;28;20433;-81
2023/09/15 10:38:35;;;;;;;6.70;2.45;;;21.30;99.90;;;;;;5013160;28;20910;-81
2023/09/15 10:41:05;;;;;;;5.32;2.60;;;21.50;99.90;;;;;;5026449;28;20422;-82
2023/09/15 10:43:31;;;;;;;5.10;2.50;;;20.80;99.90;;;;;;5031220;28;20412;-81
2023/09/15 10:46:04;;;;;;;6.18;2.60;;;21.00;99.90;;;;;;5038703;28;20555;-82
2023/09/15 10:48:46;;;;;;;5.82;2.40;;;21.30;99.90;;;;;;5069391;28;20409;-81
2023/09/15 10:51:16;;;;;;;5.95;2.53;;;21.20;99.90;;;;;;5047841;28;20421;-81
2023/09/15 10:53:56;;;;;;;13.05;2.40;;;21.70;99.90;;;;;;5036288;28;20425;-82
2023/09/15 10:56:22;;;;;;;5.97;2.72;;;21.60;99.90;;;;;;5013640;28;20429;-81
2023/09/15 10:58:48;;;;;;;8.30;2.78;;;21.60;99.90;;;;;;5039394;28;20988;-82
2023/09/15 11:01:15;;;;;;;5.25;2.30;;;21.80;99.90;;;;;;5049122;28;20418;-77
2023/09/15 11:03:41;;;;;;;7.88;2.45;;;21.90;99.90;;;;;;5036716;28;20511;-77
2023/09/15 11:06:14;;;;;;;4.70;2.10;;;21.40;99.90;;;;;;5018538;28;20428;-77
2023/09/15 11:08:40;;;;;;;6.45;2.30;;;21.50;99.90;;;;;;5036035;28;20432;-77
2023/09/15 11:11:10;;;;;;;5.60;2.45;;;21.70;99.90;;;;;;5024015;28;20418;-78
2023/09/15 11:13:37;;;;;;;7.35;2.58;;;21.50;99.90;;;;;;5066148;28;20950;-77
2023/09/15 11:16:04;;;;;;;7.22;2.55;;;21.20;99.90;;;;;;5027977;28;20432;-77
2023/09/15 11:18:34;;;;;;;4.45;2.58;;;21.10;99.90;;;;;;5028045;28;20421;-77
2023/09/15 11:21:01;;;;;;;7.80;2.78;;;21.30;99.90;;;;;;5027990;28;20421;-78
2023/09/15 11:23:28;;;;;;;6.67;2.60;;;20.90;99.90;;;;;;5045842;28;20434;-78
2023/09/15 11:26:07;;;;;;;5.90;2.55;;;20.40;99.90;;;;;;5047877;28;20420;-77
2023/09/15 11:28:33;;;;;;;5.40;2.65;;;20.60;99.90;;;;;;5049772;28;20420;-78
2023/09/15 11:31:02;;;;;;;7.65;2.28;;;21.10;99.90;;;;;;5077593;28;20804;-78
2023/09/15 11:33:29;;;;;;;5.60;2.20;;;21.00;99.90;;;;;;5047280;28;20761;-77
2023/09/15 11:35:56;;;;;;;6.07;2.30;;;21.20;99.90;;;;;;5018595;28;20487;-77
2023/09/15 11:38:23;;;;;;;6.95;2.80;;;21.30;99.90;;;;;;5033122;28;20511;-77
2023/09/15 11:40:50;;;;;;;6.00;2.63;;;21.20;99.90;;;;;;5033575;28;20456;-77
2023/09/15 11:43:17;;;;;;;5.05;2.50;;;21.80;99.90;;;;;;5032889;28;20847;-77
2023/09/15 11:45:43;;;;;;;7.32;2.80;;;22.10;99.90;;;;;;5032879;28;20914;-77
2023/09/15 11:48:11;;;;;;;6.30;2.40;;;21.80;99.90;;;;;;5018566;28;20467;-77
2023/09/15 11:50:37;;;;;;;6.32;2.80;;;22.00;99.90;;;;;;5025554;28;20415;-78
2023/09/15 11:53:03;;;;;;;8.65;2.80;;;21.90;99.90;;;;;;5030055;28;20481;-78
2023/09/15 11:55:30;;;;;;;5.07;2.50;;;21.60;99.90;;;;;;5018424;28;20924;-78
2023/09/15 11:57:56;;;;;;;6.45;3.10;;;22.10;99.90;;;;;;5000609;28;20424;-77
2023/09/15 12:00:24;;;;;;;6.82;2.72;;;21.40;99.90;;;;;;5081181;28;20466;-77
2023/09/15 12:02:53;;;;;;;5.53;2.53;;;22.20;99.90;;;;;;5014114;28;20418;-78
2023/09/15 12:05:20;;;;;;;5.57;2.78;;;22.50;99.90;;;;;;5039898;28;20429;-77
2023/09/15 12:07:47;;;;;;;5.63;2.67;;;22.40;99.90;;;;;;5031725;28;20467;-77
2023/09/15 12:10:15;;;;;;;4.57;2.50;;;22.70;99.90;;;;;;5018057;28;20416;-76
2023/09/15 12:12:42;;;;;;;6.03;2.75;;;22.80;99.90;;;;;;5030763;28;20782;-78
2023/09/15 12:15:08;;;;;;;6.70;2.63;;;22.90;99.90;;;;;;5029626;28;20418;-77
2023/09/15 12:17:34;;;;;;;6.93;2.80;;;22.90;99.90;;;;;;5035164;28;20421;-80
2023/09/15 12:20:07;;;;;;;6.88;2.60;;;22.60;99.90;;;;;;5024530;28;20500;-77
2023/09/15 12:22:38;;;;;;;5.90;2.67;;;22.70;99.90;;;;;;5027483;28;20427;-77
2023/09/15 12:25:05;;;;;;;7.10;2.72;;;22.50;99.90;;;;;;5029235;28;20742;-80
2023/09/15 12:27:32;;;;;;;5.43;2.58;;;22.60;99.90;;;;;;5032576;28;20417;-76
2023/09/15 12:30:02;;;;;;;7.72;2.60;;;22.60;99.90;;;;;;5032861;28;20423;-76
2023/09/15 12:32:31;;;;;;;6.15;2.60;;;23.20;99.90;;;;;;5003968;28;20446;-76
2023/09/15 12:34:57;;;;;;;5.47;2.57;;;23.30;99.90;;;;;;5045112;28;21250;-77
2023/09/15 12:37:27;;;;;;;6.60;2.30;;;23.90;99.90;;;;;;5030287;28;20884;-77
2023/09/15 12:39:53;;;;;;;4.70;2.40;;;23.50;99.90;;;;;;5027002;28;20437;-77
2023/09/15 12:42:18;;;;;;;9.35;2.42;;;23.10;99.90;;;;;;5033113;28;20491;-77
2023/09/15 12:44:44;;;;;;;6.32;2.80;;;22.60;99.90;;;;;;5018355;28;20405;-77
2023/09/15 12:47:10;;;;;;;4.73;2.47;;;21.90;99.90;;;;;;5066502;28;20827;-77
2023/09/15 12:49:37;;;;;;;4.17;2.40;;;21.90;99.90;;;;;;5016811;28;20972;-77
2023/09/15 12:52:03;;;;;;;5.82;2.30;;;21.90;99.90;;;;;;5017728;28;20484;-77
2023/09/15 12:54:29;;;;;;;6.35;2.65;;;21.80;99.90;;;;;;5016222;28;20429;-77
2023/09/15 12:56:56;;;;;;;5.43;2.37;;;22.20;99.90;;;;;;5033458;28;20421;-77
2023/09/15 12:59:26;;;;;;;7.80;2.78;;;22.10;99.90;;;;;;5001736;28;20908;-77